createdAt,value
2019-05-22T17:24:25.293Z,92.30
2019-05-22T17:27:16.192Z,91.80
2019-05-22T17:30:20.472Z,93.30
2019-05-22T17:33:32.203Z,93.20
2019-05-22T17:36:30.685Z,92.70
2019-05-22T17:42:46.511Z,93.40
2019-05-22T17:45:05.775Z,94.30
2019-05-22T17:47:34.671Z,94.20
2019-05-22T17:53:24.253Z,94.70
2019-05-22T17:56:10.779Z,94.90
2019-05-22T17:58:41.028Z,93.00
2019-05-22T18:01:32.321Z,91.60
2019-05-22T18:04:49.762Z,92.00
2019-05-22T18:07:48.033Z,92.30
2019-05-22T18:17:14.000Z,93.10
2019-05-22T18:22:53.904Z,94.00
2019-05-22T18:25:32.209Z,92.40
2019-05-22T18:28:04.340Z,90.80
2019-05-22T18:33:29.481Z,87.60
2019-05-22T18:36:48.119Z,85.60
2019-05-22T18:39:41.780Z,86.20
2019-05-22T18:42:47.665Z,84.70
2019-05-22T18:45:54.111Z,84.80
2019-05-22T18:48:48.406Z,84.40
2019-05-22T18:52:08.941Z,83.70
2019-05-22T18:54:14.296Z,84.40
2019-05-22T18:56:47.998Z,85.40
2019-05-22T19:03:03.393Z,82.30
2019-05-22T19:05:35.728Z,82.40
2019-05-22T19:08:35.586Z,84.50
2019-05-22T19:11:45.091Z,82.10
2019-05-22T19:14:36.217Z,83.60
2019-05-22T19:17:05.414Z,83.70
2019-05-22T19:20:12.687Z,82.00
2019-05-22T19:23:17.062Z,83.60
2019-05-22T19:25:42.945Z,84.50
2019-05-22T19:29:04.185Z,86.60
2019-05-22T19:31:24.796Z,85.70
2019-05-22T19:34:11.971Z,86.70
2019-05-22T19:37:08.305Z,86.90
2019-05-22T19:40:01.823Z,93.20
2019-05-22T19:42:45.254Z,96.50
2019-05-22T19:45:53.442Z,94.50
2019-05-22T19:48:32.073Z,94.90
2019-05-22T19:51:41.532Z,97.20
2019-05-22T19:54:17.149Z,97.00
2019-05-22T19:56:54.118Z,98.80
2019-05-22T19:59:26.210Z,99.60
2019-05-22T20:02:24.523Z,99.90
2019-05-22T20:05:27.241Z,99.90
2019-05-22T20:08:16.763Z,99.90
2019-05-22T20:10:41.212Z,99.90
2019-05-22T20:13:50.700Z,99.90
2019-05-22T20:16:44.947Z,99.90
2019-05-22T20:19:36.366Z,99.90
2019-05-22T20:22:42.751Z,99.90
2019-05-22T20:25:35.426Z,99.90
2019-05-22T20:28:35.326Z,99.90
2019-05-22T20:31:22.916Z,99.90
2019-05-22T20:34:21.094Z,99.90
2019-05-22T20:37:06.299Z,99.90
2019-05-22T20:40:01.535Z,99.90
2019-05-22T20:43:24.187Z,99.90
2019-05-22T20:45:55.100Z,99.90
2019-05-22T20:48:36.117Z,99.10
2019-05-22T20:51:38.576Z,93.40
2019-05-22T20:54:31.269Z,92.50
2019-05-22T20:57:58.872Z,91.20
2019-05-22T21:00:42.816Z,92.50
2019-05-22T21:03:44.631Z,93.10
2019-05-22T21:07:28.396Z,91.30
2019-05-22T21:12:55.300Z,93.30
2019-05-22T21:18:42.955Z,99.90
2019-05-22T21:21:42.728Z,99.90
2019-05-22T21:27:52.220Z,99.90
2019-05-22T21:34:13.376Z,99.90
2019-05-22T21:37:01.826Z,99.90
2019-05-22T21:39:55.105Z,99.90
2019-05-22T21:44:09.893Z,99.90
2019-05-22T21:46:40.506Z,99.90
2019-05-22T21:49:20.199Z,99.90
2019-05-22T21:52:54.993Z,99.90
2019-05-22T21:55:38.749Z,99.90
2019-05-22T22:11:51.903Z,99.90
2019-05-22T22:14:30.657Z,99.90
2019-05-22T22:17:14.069Z,99.90
2019-05-22T22:27:18.137Z,99.90
2019-05-22T22:30:02.915Z,99.90
2019-05-22T22:36:51.157Z,99.90
2019-05-22T22:39:34.276Z,99.90
2019-05-22T22:42:25.243Z,99.90
2019-05-22T22:45:13.999Z,99.90
2019-05-22T22:47:56.568Z,99.90
2019-05-22T22:50:46.093Z,99.90
2019-05-22T22:53:55.790Z,99.90
2019-05-22T23:00:02.993Z,99.90
2019-05-22T23:12:39.918Z,99.90
2019-05-22T23:15:29.591Z,99.90
2019-05-22T23:18:08.446Z,99.90
2019-05-22T23:20:37.723Z,99.90
2019-05-22T23:26:17.464Z,99.90
2019-05-22T23:29:01.531Z,99.90
2019-05-22T23:31:44.254Z,99.90
2019-05-22T23:38:02.955Z,99.90
2019-05-22T23:48:50.002Z,99.90
2019-05-22T23:51:28.106Z,99.90
2019-05-22T23:54:18.094Z,99.90
2019-05-22T23:57:01.119Z,99.90
2019-05-22T23:59:38.674Z,99.90
